Time;durP1;ratioP1;P1;durP2;ratioP2;P2;SDS_P1;SDS_P2;PMS_P1;PMS_P2;Temp;Humidity;BMP_temperature;BMP_pressure;BME280_temperature;BME280_humidity;BME280_pressure;Samples;Min_cycle;Max_cycle;Signal;HPM_P1;HPM_P2
2021/12/08 00:02:10;;;;;;;5.67;3.40;;;;;;;1.89;87.79;93871.56;5032314;28;20659;-84
2021/12/08 00:04:36;;;;;;;13.80;5.33;;;;;;;1.86;87.47;93853.78;5031409;28;20211;-85
2021/12/08 00:07:02;;;;;;;5.87;3.60;;;;;;;1.65;86.84;93844.13;5015281;28;20214;-84
2021/12/08 00:09:35;;;;;;;7.77;4.03;;;;;;;1.69;87.69;93842.81;5033921;28;20739;-84
2021/12/08 00:14:45;;;;;;;5.80;3.63;;;;;;;1.82;87.37;93860.28;5034133;28;20170;-85
2021/12/08 00:17:11;;;;;;;6.43;3.57;;;;;;;1.75;87.19;93846.44;5034217;28;20541;-83
2021/12/08 00:19:36;;;;;;;6.17;2.90;;;;;;;1.84;86.87;93869.50;5034478;28;20175;-84
2021/12/08 00:22:02;;;;;;;7.27;3.67;;;;;;;1.98;86.06;93890.44;5033984;28;20168;-84
2021/12/08 00:24:28;;;;;;;7.70;3.00;;;;;;;1.83;85.99;93875.69;5033785;28;20182;-84
2021/12/08 00:26:54;;;;;;;6.10;3.80;;;;;;;1.90;85.80;93886.16;5034071;28;20218;-84
2021/12/08 00:29:20;;;;;;;5.93;3.37;;;;;;;1.56;86.02;93844.44;5033655;28;20207;-85
2021/12/08 00:31:47;;;;;;;5.10;3.30;;;;;;;1.89;86.54;93907.91;5033783;28;20179;-84
2021/12/08 00:34:13;;;;;;;6.40;3.03;;;;;;;1.26;86.68;93797.81;5033491;28;20195;-84
2021/12/08 00:36:43;;;;;;;6.40;3.70;;;;;;;1.45;87.04;93830.97;5033486;28;20229;-84
2021/12/08 00:39:10;;;;;;;6.27;3.23;;;;;;;1.65;86.52;93854.50;5033601;28;20168;-83
2021/12/08 00:41:35;;;;;;;6.63;3.80;;;;;;;2.01;86.02;93923.78;5034219;28;20175;-83
2021/12/08 00:44:01;;;;;;;5.47;2.97;;;;;;;1.51;85.58;93852.75;5033461;28;20243;-84
2021/12/08 00:46:26;;;;;;;4.80;2.90;;;;;;;1.81;86.06;93923.56;5033565;28;20565;-84
2021/12/08 00:48:52;;;;;;;3.40;2.70;;;;;;;1.49;86.12;93867.69;5033312;28;20235;-84
2021/12/08 00:51:18;;;;;;;5.53;3.07;;;;;;;1.54;86.42;93906.03;5033530;28;20658;-84
2021/12/08 00:53:46;;;;;;;5.70;2.73;;;;;;;1.74;87.05;93933.03;5033294;28;20647;-84
2021/12/08 00:56:11;;;;;;;8.03;3.93;;;;;;;1.64;86.90;93902.22;5033130;28;20172;-84
2021/12/08 00:58:37;;;;;;;6.30;3.90;;;;;;;1.69;87.24;93915.44;5033149;28;20183;-84
2021/12/08 01:01:04;;;;;;;4.57;3.20;;;;;;;1.41;86.85;93858.22;5033057;28;20184;-83
2021/12/08 01:03:31;;;;;;;5.57;3.23;;;;;;;1.91;86.56;93924.06;5033087;28;20148;-84
2021/12/08 01:05:57;;;;;;;5.60;3.57;;;;;;;1.58;85.75;93865.78;5033009;28;20199;-83
2021/12/08 01:08:25;;;;;;;6.10;3.13;;;;;;;1.83;85.63;93916.38;5033083;28;20231;-84
2021/12/08 01:10:52;;;;;;;5.67;3.17;;;;;;;1.77;85.65;93907.53;5032876;28;20187;-84
2021/12/08 01:13:20;;;;;;;7.33;3.10;;;;;;;1.88;85.38;93935.63;5032785;28;20558;-84
2021/12/08 01:15:52;;;;;;;5.67;3.60;;;;;;;1.79;85.56;93922.94;5032509;28;20207;-84
2021/12/08 01:18:19;;;;;;;7.33;4.10;;;;;;;1.89;85.43;93933.84;5032622;28;20179;-85
2021/12/08 01:20:47;;;;;;;7.27;4.03;;;;;;;1.84;86.19;93918.81;5032751;28;20306;-84
2021/12/08 01:23:14;;;;;;;5.07;3.43;;;;;;;1.96;85.64;93931.31;5033308;28;20168;-85
2021/12/08 01:25:39;;;;;;;6.90;3.80;;;;;;;1.70;85.52;93887.69;5032691;28;20175;-84
2021/12/08 01:28:05;;;;;;;6.43;3.77;;;;;;;1.82;85.17;93904.41;5032937;28;20191;-84
2021/12/08 01:30:31;;;;;;;5.33;3.40;;;;;;;1.28;85.36;93821.78;5032471;28;20262;-85
2021/12/08 01:32:56;;;;;;;5.27;3.87;;;;;;;1.69;85.27;93884.31;5033122;28;20179;-84
2021/12/08 01:35:22;;;;;;;5.83;3.87;;;;;;;1.55;85.20;93858.41;5032464;28;20198;-85
2021/12/08 01:37:48;;;;;;;6.53;4.00;;;;;;;2.04;84.94;93944.19;5032534;28;20168;-85
2021/12/08 01:40:16;;;;;;;5.10;3.50;;;;;;;2.05;85.66;93935.44;5014669;28;20168;-84
2021/12/08 01:42:46;;;;;;;7.07;3.90;;;;;;;1.82;84.54;93918.16;5032367;28;20266;-85
2021/12/08 01:47:59;;;;;;;7.63;4.60;;;;;;;1.56;85.35;93884.13;5032509;28;20318;-85
2021/12/08 01:50:25;;;;;;;10.27;4.87;;;;;;;1.60;85.40;93906.13;5032050;28;20306;-85
2021/12/08 01:52:51;;;;;;;7.27;3.90;;;;;;;1.83;85.67;93942.31;5032304;28;20303;-86
2021/12/08 01:55:17;;;;;;;11.13;4.93;;;;;;;1.72;85.64;93929.84;5032528;28;20682;-84
2021/12/08 01:57:44;;;;;;;8.63;4.90;;;;;;;1.85;85.15;93948.94;5032383;28;20229;-85
2021/12/08 02:00:25;;;;;;;10.70;5.43;;;;;;;1.97;85.37;93964.06;5032519;28;20628;-84
2021/12/08 02:02:50;;;;;;;9.00;4.83;;;;;;;1.92;85.58;93962.00;5032444;28;20207;-84
2021/12/08 02:05:17;;;;;;;6.47;4.50;;;;;;;1.86;85.09;93973.09;5032462;28;20246;-85
2021/12/08 02:07:43;;;;;;;9.70;5.70;;;;;;;1.45;85.70;93905.34;5032063;28;21127;-86
2021/12/08 02:10:09;;;;;;;9.40;5.40;;;;;;;1.79;85.92;93952.28;5032081;28;20168;-85
2021/12/08 02:12:39;;;;;;;11.27;6.57;;;;;;;1.50;85.88;93905.59;5032295;28;20159;-85
2021/12/08 02:15:06;;;;;;;9.97;5.87;;;;;;;1.81;85.56;93950.31;5032078;28;20258;-84
2021/12/08 02:17:32;;;;;;;12.40;5.87;;;;;;;1.69;84.90;93962.09;5032342;28;20167;-85
2021/12/08 02:19:58;;;;;;;13.47;7.00;;;;;;;1.64;85.52;93942.91;5031984;28;20164;-84
2021/12/08 02:22:23;;;;;;;11.83;6.43;;;;;;;1.48;86.39;93910.13;5032072;28;20160;-84
2021/12/08 02:24:49;;;;;;;12.47;7.00;;;;;;;1.96;86.09;93978.84;5031922;28;20203;-83
2021/12/08 02:27:14;;;;;;;9.13;5.73;;;;;;;1.67;86.00;93921.78;5034200;28;20199;-83
2021/12/08 02:29:48;;;;;;;14.03;7.03;;;;;;;2.08;85.21;93987.75;5036197;28;20191;-83
2021/12/08 02:48:29;;;;;;;18.97;8.13;;;;;;;1.90;84.95;93980.34;5015998;28;20238;-85
2021/12/08 02:50:55;;;;;;;16.13;7.90;;;;;;;1.55;85.39;93949.16;5015669;28;20227;-85
2021/12/08 02:53:21;;;;;;;16.27;8.07;;;;;;;1.90;86.00;94001.09;5015772;28;20264;-85
2021/12/08 02:55:48;;;;;;;14.40;8.03;;;;;;;1.56;86.28;93935.97;5031453;28;20259;-85
2021/12/08 02:58:14;;;;;;;17.23;8.20;;;;;;;2.01;86.31;93991.25;5035300;28;20171;-86
2021/12/08 03:00:47;;;;;;;17.17;9.53;;;;;;;1.93;85.92;93988.75;5035201;28;20176;-85
2021/12/08 03:03:13;;;;;;;14.73;8.27;;;;;;;1.80;85.88;93963.47;5035370;28;20171;-86
2021/12/08 03:05:39;;;;;;;16.03;8.33;;;;;;;1.52;86.01;93916.59;5035678;28;20321;-85
2021/12/08 03:08:06;;;;;;;17.90;8.27;;;;;;;2.07;85.69;94001.75;5035036;28;20666;-85
2021/12/08 03:10:37;;;;;;;15.20;8.23;;;;;;;1.80;86.19;93958.28;5035139;28;20178;-85
2021/12/08 03:13:03;;;;;;;12.80;7.73;;;;;;;1.88;86.16;93977.13;5035108;28;20232;-83
2021/12/08 03:15:28;;;;;;;17.97;10.30;;;;;;;2.00;86.32;93981.84;5044218;28;20260;-83
2021/12/08 03:17:54;;;;;;;21.20;8.80;;;;;;;2.01;85.60;93989.47;5042823;28;20691;-84
2021/12/08 03:20:28;;;;;;;14.30;8.33;;;;;;;1.81;86.14;93960.69;5035051;28;20180;-84
2021/12/08 03:23:00;;;;;;;16.90;8.73;;;;;;;1.81;85.77;93952.91;5035017;28;20163;-84
2021/12/08 03:25:28;;;;;;;16.47;9.17;;;;;;;1.73;85.11;93945.19;5035309;28;20163;-84
2021/12/08 03:28:06;;;;;;;17.13;9.20;;;;;;;1.76;85.52;93964.78;5035141;28;20184;-84
2021/12/08 03:30:41;;;;;;;17.47;8.77;;;;;;;1.88;85.47;93997.91;5035089;28;20235;-85
2021/12/08 03:33:08;;;;;;;17.27;9.63;;;;;;;1.59;85.60;93963.34;5035298;28;20171;-84
2021/12/08 03:35:34;;;;;;;18.27;9.97;;;;;;;2.02;86.09;94024.00;5034650;28;20176;-85
2021/12/08 03:38:00;;;;;;;21.00;10.13;;;;;;;1.69;86.15;94003.59;5034231;28;20562;-84
2021/12/08 03:40:27;;;;;;;17.83;8.77;;;;;;;1.71;86.81;94006.84;5034639;28;20171;-84
2021/12/08 03:42:56;;;;;;;21.77;10.23;;;;;;;1.87;87.11;94024.00;5034638;28;20618;-84
2021/12/08 03:45:30;;;;;;;16.67;9.47;;;;;;;1.96;86.63;94042.91;5034499;28;20984;-83
2021/12/08 03:48:01;;;;;;;20.07;9.17;;;;;;;1.75;86.59;93996.88;5034734;28;20616;-83
2021/12/08 03:50:28;;;;;;;19.03;9.97;;;;;;;2.03;85.62;94036.00;5034383;28;20227;-84
2021/12/08 03:52:54;;;;;;;15.23;9.73;;;;;;;1.98;86.42;94028.78;5016624;28;20179;-84
2021/12/08 03:55:19;;;;;;;19.73;10.07;;;;;;;1.61;85.64;93961.38;5034304;28;20708;-84
2021/12/08 03:57:45;;;;;;;18.50;9.43;;;;;;;2.10;85.73;94047.28;5034364;28;20545;-83
2021/12/08 04:00:17;;;;;;;16.37;9.57;;;;;;;1.93;85.43;94025.88;5034609;28;20172;-84
2021/12/08 04:02:44;;;;;;;16.90;9.57;;;;;;;2.09;85.72;94051.66;5034734;28;20211;-84
2021/12/08 04:05:10;;;;;;;17.13;10.50;;;;;;;1.97;85.49;94028.94;5034133;28;20649;-84
2021/12/08 04:07:43;;;;;;;22.70;9.13;;;;;;;2.15;84.76;94057.94;5034097;28;20156;-84
2021/12/08 04:10:16;;;;;;;16.30;8.27;;;;;;;2.06;84.82;94035.66;5034095;28;20153;-84
2021/12/08 04:12:42;;;;;;;16.20;9.50;;;;;;;2.21;84.65;94059.81;5034316;28;20641;-86
2021/12/08 04:15:09;;;;;;;14.73;9.13;;;;;;;2.11;84.87;94033.31;5033983;28;20266;-84
2021/12/08 04:17:41;;;;;;;17.93;9.90;;;;;;;1.85;84.19;94016.41;5034328;28;20160;-84
2021/12/08 04:20:23;;;;;;;17.63;9.37;;;;;;;2.09;84.59;94054.25;5034293;28;20164;-84
2021/12/08 04:22:52;;;;;;;21.50;9.90;;;;;;;2.06;84.54;94057.22;5034215;28;20156;-85
2021/12/08 04:25:26;;;;;;;18.50;9.77;;;;;;;2.01;84.84;94069.91;5033758;28;20160;-84
2021/12/08 04:27:55;;;;;;;20.23;9.90;;;;;;;1.94;85.30;94052.63;5034077;28;20277;-85
2021/12/08 04:30:26;;;;;;;15.73;9.20;;;;;;;1.96;85.72;94066.25;5033786;28;20202;-84
2021/12/08 04:32:51;;;;;;;26.00;12.93;;;;;;;1.43;85.41;93969.50;5034102;28;20265;-84
2021/12/08 04:35:19;;;;;;;21.30;10.87;;;;;;;1.56;85.93;93998.22;5033523;28;20245;-84
2021/12/08 04:37:49;;;;;;;18.43;9.90;;;;;;;1.54;85.62;93989.81;5033411;28;20211;-84
2021/12/08 04:40:32;;;;;;;21.93;11.23;;;;;;;1.52;85.01;93997.78;5033808;28;20518;-84
2021/12/08 04:43:09;;;;;;;19.30;10.10;;;;;;;1.81;85.37;94041.09;5033803;28;20646;-84
2021/12/08 04:45:53;;;;;;;25.80;11.43;;;;;;;1.84;85.71;94058.09;5033485;28;20234;-84
2021/12/08 04:48:36;;;;;;;20.20;10.80;;;;;;;2.14;85.29;94101.25;5033574;28;20196;-84
2021/12/08 04:51:30;;;;;;;18.53;10.30;;;;;;;2.20;85.15;94099.72;5033126;28;20612;-84
2021/12/08 05:07:49;;;;;;;19.07;10.80;;;;;;;1.77;84.82;94049.41;5033070;28;20195;-84
2021/12/08 05:10:22;;;;;;;21.57;10.27;;;;;;;1.89;84.66;94087.72;5033031;28;20156;-84
2021/12/08 05:12:50;;;;;;;21.27;11.47;;;;;;;1.78;85.33;94082.94;5033243;28;20549;-85
2021/12/08 05:15:24;;;;;;;20.53;11.77;;;;;;;1.34;85.37;94002.47;5032924;28;20174;-86
2021/12/08 05:18:13;;;;;;;19.13;10.57;;;;;;;2.12;84.96;94134.38;5032922;28;20164;-86
2021/12/08 05:20:44;;;;;;;16.20;8.67;;;;;;;2.16;84.63;94140.03;5032047;28;20184;-85
2021/12/08 05:23:42;;;;;;;17.87;9.50;;;;;;;1.81;85.12;94080.03;5014741;28;20179;-85
2021/12/08 05:26:15;;;;;;;22.03;11.23;;;;;;;2.20;86.50;94149.06;5025665;28;20199;-85
2021/12/08 05:28:45;;;;;;;27.30;11.97;;;;;;;2.01;85.66;94123.59;5032583;28;20199;-82
2021/12/08 05:31:16;;;;;;;19.93;9.93;;;;;;;1.95;85.21;94114.75;5032596;28;20587;-84
2021/12/08 05:33:43;;;;;;;22.20;10.27;;;;;;;1.98;84.90;94116.19;5032339;28;20168;-84
2021/12/08 05:36:11;;;;;;;19.67;10.43;;;;;;;2.12;84.93;94154.31;5031015;28;20202;-86
2021/12/08 05:38:37;;;;;;;20.10;10.87;;;;;;;1.59;84.96;94075.66;5032406;28;20156;-86
2021/12/08 05:41:13;;;;;;;23.53;11.57;;;;;;;1.91;85.60;94131.63;5014560;28;20283;-86
2021/12/08 05:43:40;;;;;;;24.07;11.63;;;;;;;2.08;86.08;94163.44;5032376;28;20197;-87
2021/12/08 05:46:06;;;;;;;22.60;10.67;;;;;;;2.06;85.61;94166.22;5032047;28;20179;-86
2021/12/08 05:48:33;;;;;;;20.03;10.20;;;;;;;2.00;85.24;94160.91;5032041;28;20215;-84
2021/12/08 05:51:08;;;;;;;18.93;10.23;;;;;;;2.03;85.40;94171.75;5047526;28;20285;-88
2021/12/08 05:53:35;;;;;;;18.93;10.57;;;;;;;2.00;85.54;94176.47;5052099;28;20628;-86
2021/12/08 05:56:02;;;;;;;24.57;11.50;;;;;;;1.42;86.08;94085.38;5051824;28;20225;-86
2021/12/08 05:58:29;;;;;;;24.77;10.53;;;;;;;1.59;85.84;94101.59;5052017;28;20175;-87
2021/12/08 06:01:04;;;;;;;23.00;10.20;;;;;;;2.04;85.80;94175.16;5027040;28;20259;-87
2021/12/08 06:03:31;;;;;;;23.40;11.30;;;;;;;1.76;85.78;94133.38;5032058;28;20177;-87
2021/12/08 06:05:57;;;;;;;25.53;11.93;;;;;;;1.91;85.86;94167.94;5014407;28;20178;-85
2021/12/08 06:08:23;;;;;;;23.80;11.90;;;;;;;1.90;85.61;94182.72;5032075;28;20279;-83
2021/12/08 06:10:49;;;;;;;25.23;11.13;;;;;;;1.61;85.91;94143.72;5032326;28;20670;-83
2021/12/08 06:13:17;;;;;;;20.50;10.47;;;;;;;1.93;86.03;94184.16;5032078;28;20202;-84
2021/12/08 06:15:45;;;;;;;21.20;10.23;;;;;;;1.91;85.37;94175.75;5031987;28;20176;-85
2021/12/08 06:18:11;;;;;;;27.93;10.73;;;;;;;1.92;85.73;94195.53;5031978;28;20624;-84
2021/12/08 06:20:38;;;;;;;24.47;11.57;;;;;;;1.77;86.54;94187.69;5031901;28;20170;-85
2021/12/08 06:23:06;;;;;;;21.63;11.37;;;;;;;1.72;85.99;94174.44;5031978;28;20182;-85
2021/12/08 06:25:32;;;;;;;31.97;12.30;;;;;;;1.70;86.14;94188.56;5031925;28;20168;-83
2021/12/08 06:27:57;;;;;;;24.60;10.90;;;;;;;1.38;86.75;94154.13;5031888;28;20206;-84
2021/12/08 06:30:26;;;;;;;21.23;10.60;;;;;;;1.84;87.15;94211.97;5031767;28;20651;-85
2021/12/08 06:32:53;;;;;;;24.30;11.80;;;;;;;1.29;87.16;94115.44;5032090;28;20172;-85
2021/12/08 06:35:24;;;;;;;23.40;11.07;;;;;;;1.88;86.06;94204.66;5030150;28;20180;-85
2021/12/08 06:37:51;;;;;;;21.23;10.63;;;;;;;1.77;85.57;94179.91;5029735;28;20182;-84
2021/12/08 06:40:52;;;;;;;23.77;10.90;;;;;;;1.93;85.01;94206.72;5011906;28;20542;-87
2021/12/08 06:43:22;;;;;;;20.27;11.33;;;;;;;1.94;84.85;94210.91;5020302;28;20194;-84
2021/12/08 06:45:50;;;;;;;20.33;11.87;;;;;;;1.98;85.11;94220.78;5014040;28;20641;-84
2021/12/08 06:48:19;;;;;;;16.73;10.40;;;;;;;2.00;85.10;94221.41;5033663;28;20190;-85
2021/12/08 06:50:53;;;;;;;22.23;11.03;;;;;;;1.96;83.89;94214.16;5051227;28;20677;-84
2021/12/08 06:53:19;;;;;;;18.37;9.67;;;;;;;1.77;84.03;94182.50;5051560;28;20163;-84
2021/12/08 06:55:49;;;;;;;19.63;9.53;;;;;;;1.83;83.74;94206.94;5051515;28;20266;-84
2021/12/08 06:58:24;;;;;;;20.00;9.90;;;;;;;1.68;84.30;94185.34;5050113;28;20167;-83
2021/12/08 07:04:06;;;;;;;24.53;10.27;;;;;;;1.88;84.56;94210.66;5031641;28;20191;-85
2021/12/08 07:09:12;;;;;;;24.13;11.80;;;;;;;1.98;84.32;94222.56;5031437;28;20710;-84
2021/12/08 07:11:39;;;;;;;24.80;11.73;;;;;;;2.05;83.80;94223.50;5031654;28;20164;-85
2021/12/08 07:14:05;;;;;;;22.30;12.20;;;;;;;1.59;84.02;94139.69;5034716;28;20193;-84
2021/12/08 07:16:35;;;;;;;21.83;11.17;;;;;;;2.00;84.08;94198.03;5034938;28;20666;-85
2021/12/08 07:19:24;;;;;;;19.23;9.50;;;;;;;2.01;83.76;94199.66;5034752;28;20180;-86
2021/12/08 07:21:52;;;;;;;19.43;10.57;;;;;;;2.07;83.72;94195.56;5035265;28;20615;-84
2021/12/08 07:24:23;;;;;;;14.97;9.80;;;;;;;2.14;82.97;94215.47;5034726;28;20200;-84
2021/12/08 07:26:54;;;;;;;28.33;13.63;;;;;;;2.14;82.66;94228.44;5034831;28;20546;-83
2021/12/08 07:29:25;;;;;;;27.47;13.67;;;;;;;1.86;83.40;94184.06;5034904;28;20223;-84
2021/12/08 07:31:58;;;;;;;22.73;11.90;;;;;;;1.68;82.63;94174.97;5034960;28;20183;-85
2021/12/08 07:34:25;;;;;;;25.20;11.73;;;;;;;1.73;82.70;94185.63;5034950;28;20195;-84
2021/12/08 07:36:59;;;;;;;28.13;14.23;;;;;;;1.84;83.43;94250.88;5054685;28;20159;-85
2021/12/08 07:39:29;;;;;;;31.73;16.23;;;;;;;1.88;84.37;94254.75;5036588;28;20262;-83
2021/12/08 07:42:08;;;;;;;37.10;15.37;;;;;;;1.67;84.47;94214.84;5054546;28;20562;-83
2021/12/08 07:44:33;;;;;;;28.97;14.77;;;;;;;2.05;84.40;94263.22;5054421;28;20183;-85
2021/12/08 07:47:12;;;;;;;26.20;13.93;;;;;;;1.97;84.41;94252.09;5036628;28;20199;-84
2021/12/08 07:49:45;;;;;;;28.00;15.27;;;;;;;1.81;83.49;94222.69;5054363;28;20627;-86
2021/12/08 07:52:24;;;;;;;22.63;13.03;;;;;;;1.52;84.08;94165.50;5054299;28;20171;-85
2021/12/08 07:54:50;;;;;;;30.83;15.27;;;;;;;2.11;83.71;94272.09;5053990;28;20201;-83
2021/12/08 07:57:24;;;;;;;26.50;12.33;;;;;;;2.09;82.69;94268.84;5044466;28;20191;-84
2021/12/08 07:59:54;;;;;;;25.27;13.20;;;;;;;2.07;83.91;94260.47;5034353;28;20168;-80
2021/12/08 08:02:25;;;;;;;26.33;13.47;;;;;;;2.23;83.63;94283.69;5034186;28;20175;-81
2021/12/08 08:04:52;;;;;;;31.83;15.07;;;;;;;2.22;83.83;94285.47;5034201;28;20152;-81
2021/12/08 08:07:19;;;;;;;26.63;14.53;;;;;;;2.04;82.62;94248.63;5034333;28;20565;-81
2021/12/08 08:09:47;;;;;;;34.40;15.17;;;;;;;2.32;83.65;94289.63;5033613;28;20602;-80
2021/12/08 08:12:22;;;;;;;37.93;16.57;;;;;;;2.32;83.08;94295.63;5031601;28;20179;-83
2021/12/08 08:14:53;;;;;;;33.57;14.43;;;;;;;2.06;83.12;94235.50;5039610;28;20167;-81
2021/12/08 08:17:34;;;;;;;27.07;12.50;;;;;;;2.52;82.87;94301.13;5033983;28;20167;-83
2021/12/08 08:20:03;;;;;;;26.97;13.37;;;;;;;2.20;82.31;94247.69;5034257;28;20191;-84
2021/12/08 08:22:30;;;;;;;22.90;12.13;;;;;;;2.61;81.81;94313.06;5016076;28;20538;-84
2021/12/08 08:24:59;;;;;;;19.97;10.57;;;;;;;2.63;81.13;94303.31;5031963;28;20202;-83
2021/12/08 08:27:26;;;;;;;24.17;11.73;;;;;;;2.63;80.86;94300.72;5033523;28;20655;-83
2021/12/08 08:29:54;;;;;;;31.27;15.70;;;;;;;2.57;81.68;94307.44;5033432;28;20286;-83
2021/12/08 08:32:34;;;;;;;25.33;11.23;;;;;;;2.64;81.38;94300.56;5033233;28;20260;-84
2021/12/08 08:35:16;;;;;;;31.23;10.50;;;;;;;2.27;80.58;94257.19;5033453;28;20160;-82
2021/12/08 08:37:47;;;;;;;29.83;12.30;;;;;;;2.00;80.95;94213.63;5033818;28;20242;-84
2021/12/08 08:40:24;;;;;;;25.40;13.40;;;;;;;2.50;81.55;94293.53;5033700;28;20186;-84
2021/12/08 08:42:51;;;;;;;24.87;12.33;;;;;;;2.42;82.06;94282.41;5033512;28;20634;-81
2021/12/08 08:45:20;;;;;;;24.67;12.10;;;;;;;2.65;81.46;94298.75;5033617;28;20179;-83
2021/12/08 08:47:53;;;;;;;26.10;13.23;;;;;;;2.33;81.33;94241.91;5033360;28;20156;-82
2021/12/08 08:50:31;;;;;;;30.23;14.57;;;;;;;2.68;80.71;94305.41;5032911;28;20238;-83
2021/12/08 08:52:57;;;;;;;31.43;14.90;;;;;;;2.76;81.52;94297.53;5031903;28;20190;-82
2021/12/08 08:55:29;;;;;;;24.60;13.03;;;;;;;2.56;80.67;94255.66;5032373;28;20187;-85
2021/12/08 08:57:55;;;;;;;23.77;14.13;;;;;;;2.85;81.00;94297.28;5010547;28;20171;-79
2021/12/08 09:00:31;;;;;;;23.03;12.37;;;;;;;2.86;80.77;94295.47;5031223;28;20175;-83
2021/12/08 09:03:01;;;;;;;22.67;11.67;;;;;;;2.63;80.01;94254.78;5030518;28;20167;-79
2021/12/08 09:05:35;;;;;;;19.60;12.10;;;;;;;2.58;80.12;94264.91;5032930;28;20199;-82
2021/12/08 09:08:03;;;;;;;24.20;12.47;;;;;;;2.79;80.96;94290.19;5032875;28;20253;-80
2021/12/08 09:10:45;;;;;;;23.23;12.97;;;;;;;2.76;80.96;94274.97;5032868;28;20198;-85
2021/12/08 09:13:25;;;;;;;27.37;13.67;;;;;;;2.87;80.78;94284.09;5032390;28;20657;-81
2021/12/08 09:15:56;;;;;;;23.90;12.37;;;;;;;2.84;80.23;94266.28;5032692;28;20177;-82
2021/12/08 09:18:43;;;;;;;22.77;11.77;;;;;;;2.53;79.95;94224.84;5044224;28;20199;-83
2021/12/08 09:21:31;;;;;;;23.47;10.87;;;;;;;2.80;80.65;94270.19;5043639;28;20198;-82
2021/12/08 09:24:26;;;;;;;18.23;10.20;;;;;;;2.79;81.21;94265.97;5032169;28;20184;-84
2021/12/08 09:26:57;;;;;;;22.37;11.33;;;;;;;2.81;81.48;94258.81;5031212;28;20195;-85
2021/12/08 09:29:40;;;;;;;25.57;11.83;;;;;;;2.91;80.76;94260.19;5032529;28;20192;-84
2021/12/08 09:32:12;;;;;;;29.50;12.00;;;;;;;2.78;81.37;94218.41;5032777;28;20172;-82
2021/12/08 09:34:43;;;;;;;27.87;13.27;;;;;;;2.79;81.32;94221.81;5033101;28;20571;-83
2021/12/08 09:37:19;;;;;;;25.47;12.03;;;;;;;2.81;81.03;94218.06;5036974;28;20182;-81
2021/12/08 09:39:52;;;;;;;27.07;13.67;;;;;;;2.77;80.97;94195.22;5051819;28;20186;-83
2021/12/08 09:42:25;;;;;;;29.40;14.20;;;;;;;3.19;80.99;94247.38;5052201;28;20221;-86
2021/12/08 09:44:59;;;;;;;19.53;12.03;;;;;;;2.93;79.99;94216.63;5051994;28;20246;-77
2021/12/08 09:47:29;;;;;;;27.63;12.47;;;;;;;3.26;80.18;94248.25;5052218;28;20166;-80
2021/12/08 09:49:56;;;;;;;31.03;15.63;;;;;;;3.07;79.63;94209.78;5052197;28;20227;-82
2021/12/08 09:52:27;;;;;;;27.77;13.03;;;;;;;3.24;79.53;94221.63;5049683;28;20678;-83
2021/12/08 09:54:53;;;;;;;27.90;13.90;;;;;;;3.38;79.49;94251.16;5029364;28;20174;-83
2021/12/08 09:57:19;;;;;;;33.83;17.53;;;;;;;3.42;79.42;94234.22;5031904;28;20239;-81
2021/12/08 09:59:47;;;;;;;25.50;13.73;;;;;;;3.46;79.24;94240.66;5031855;28;20543;-82
2021/12/08 10:02:26;;;;;;;26.97;14.33;;;;;;;3.05;79.44;94159.78;5032190;28;20168;-83
2021/12/08 10:04:55;;;;;;;25.27;13.97;;;;;;;3.61;79.56;94238.84;5008593;28;20241;-75
2021/12/08 10:07:21;;;;;;;32.47;16.27;;;;;;;3.30;79.24;94189.66;5031809;28;20611;-84
2021/12/08 10:09:49;;;;;;;23.77;13.13;;;;;;;3.67;78.79;94243.31;5031764;28;20192;-80
2021/12/08 10:12:15;;;;;;;27.60;13.70;;;;;;;3.42;78.65;94196.03;5031922;28;20172;-84
2021/12/08 10:14:41;;;;;;;33.90;15.27;;;;;;;3.26;79.16;94177.22;5032299;28;20186;-85
2021/12/08 10:17:07;;;;;;;29.80;16.00;;;;;;;3.50;78.70;94221.13;5031651;28;20179;-84
2021/12/08 10:19:32;;;;;;;34.47;15.37;;;;;;;3.69;78.36;94256.16;5031599;28;20654;-82
2021/12/08 10:21:58;;;;;;;51.10;23.80;;;;;;;3.75;79.90;94240.59;5033705;28;20182;-81
2021/12/08 10:24:29;;;;;;;94.67;44.53;;;;;;;3.93;80.05;94247.19;5031640;28;20179;-82
2021/12/08 10:27:07;;;;;;;42.90;19.73;;;;;;;3.93;79.01;94234.97;5031574;28;20175;-81
2021/12/08 10:29:33;;;;;;;30.67;16.50;;;;;;;3.77;78.11;94204.78;5029841;28;20253;-86
2021/12/08 10:32:02;;;;;;;22.97;11.80;;;;;;;3.74;77.65;94199.94;5028639;28;20182;-83
2021/12/08 10:34:35;;;;;;;32.53;16.37;;;;;;;4.02;77.72;94240.88;5031209;28;20172;-82
2021/12/08 10:37:19;;;;;;;32.60;14.43;;;;;;;3.50;77.63;94179.50;5013776;28;20698;-83
2021/12/08 10:39:46;;;;;;;24.37;13.10;;;;;;;3.80;78.24;94229.66;5030785;28;20168;-81
2021/12/08 10:42:18;;;;;;;29.33;14.33;;;;;;;3.84;78.30;94230.88;5031079;28;20267;-83
2021/12/08 10:45:01;;;;;;;27.33;15.07;;;;;;;3.89;78.03;94228.53;5031838;28;20172;-82
2021/12/08 10:47:40;;;;;;;28.57;14.67;;;;;;;3.95;77.78;94225.19;5023738;28;20182;-84
2021/12/08 10:55:22;;;;;;;24.20;14.23;;;;;;;4.11;76.53;94237.97;5024751;28;20210;-85
2021/12/08 10:57:53;;;;;;;23.97;13.87;;;;;;;3.67;76.19;94167.03;5014653;28;20207;-83
2021/12/08 11:00:32;;;;;;;23.13;12.07;;;;;;;3.82;76.92;94206.00;5026142;28;20168;-82
2021/12/08 11:03:00;;;;;;;22.63;12.63;;;;;;;4.08;78.10;94224.50;5025027;28;20659;-81
2021/12/08 11:05:26;;;;;;;25.97;12.50;;;;;;;4.22;77.09;94223.63;5024182;28;20184;-82
2021/12/08 11:08:32;;;;;;;30.43;15.33;;;;;;;4.34;76.83;94226.50;5017653;28;20173;-81
2021/12/08 11:11:00;;;;;;;31.97;16.27;;;;;;;4.41;77.01;94222.97;5024403;28;20662;-81
2021/12/08 11:13:32;;;;;;;27.67;14.57;;;;;;;4.54;76.19;94230.09;5023861;28;20180;-83
2021/12/08 11:16:13;;;;;;;28.70;14.90;;;;;;;4.45;75.11;94223.41;5017323;28;20184;-83
2021/12/08 11:18:41;;;;;;;26.53;13.63;;;;;;;4.52;74.93;94237.28;5002147;28;20167;-81
2021/12/08 11:21:18;;;;;;;32.60;14.00;;;;;;;4.22;74.86;94189.78;5023764;28;20250;-85
2021/12/08 11:23:46;;;;;;;28.13;15.07;;;;;;;4.16;75.39;94186.09;5013710;28;20180;-83
2021/12/08 11:26:29;;;;;;;26.30;13.10;;;;;;;4.37;76.17;94200.91;5008201;28;20188;-84
2021/12/08 11:29:20;;;;;;;31.73;15.87;;;;;;;4.63;76.32;94213.31;5018591;28;20197;-82
2021/12/08 11:31:53;;;;;;;38.77;18.13;;;;;;;4.97;75.09;94232.59;5023391;28;20647;-84
2021/12/08 11:34:18;;;;;;;34.57;16.83;;;;;;;5.17;75.44;94239.53;5022070;28;20192;-83
2021/12/08 11:36:45;;;;;;;35.43;18.77;;;;;;;5.05;74.27;94188.09;5031581;28;20184;-81
2021/12/08 11:39:17;;;;;;;30.87;15.23;;;;;;;5.48;73.04;94210.34;5034254;28;20527;-81
2021/12/08 11:41:46;;;;;;;26.73;13.60;;;;;;;5.64;72.46;94230.88;4998800;28;20344;-82
2021/12/08 11:44:20;;;;;;;25.43;13.77;;;;;;;5.77;72.08;94250.22;5034626;28;20187;-81
2021/12/08 11:46:50;;;;;;;25.90;14.30;;;;;;;5.53;72.91;94197.53;5024836;28;20255;-82
2021/12/08 11:49:16;;;;;;;22.37;12.27;;;;;;;5.15;70.94;94168.47;4998649;28;20216;-81
2021/12/08 11:51:42;;;;;;;20.80;12.13;;;;;;;5.59;71.79;94256.78;5029197;28;20781;-78
2021/12/08 11:54:08;;;;;;;28.37;16.07;;;;;;;5.45;72.03;94252.47;5025241;28;20175;-77
2021/12/08 11:56:39;;;;;;;23.97;13.87;;;;;;;5.22;72.07;94234.53;5024374;28;20175;-79
2021/12/08 11:59:08;;;;;;;23.40;13.80;;;;;;;5.24;72.98;94255.22;5022993;28;20255;-78
2021/12/08 12:01:34;;;;;;;25.23;13.33;;;;;;;5.01;72.86;94228.59;5023258;28;20195;-79
2021/12/08 12:04:00;;;;;;;23.30;12.77;;;;;;;5.08;74.57;94245.09;5017934;28;20173;-79
2021/12/08 12:06:28;;;;;;;22.97;12.10;;;;;;;5.01;73.82;94242.44;5015464;28;20187;-78
2021/12/08 12:08:59;;;;;;;21.43;10.73;;;;;;;5.06;73.55;94247.88;5024257;28;20321;-81
2021/12/08 12:11:26;;;;;;;19.47;12.93;;;;;;;4.89;73.62;94238.75;5006386;28;20733;-81
2021/12/08 12:13:54;;;;;;;21.80;12.93;;;;;;;4.93;73.95;94266.84;5025039;28;20188;-78
2021/12/08 12:16:20;;;;;;;26.20;14.33;;;;;;;4.82;74.01;94245.72;5025181;28;20253;-81
2021/12/08 12:18:46;;;;;;;27.47;14.40;;;;;;;5.14;77.62;94252.13;5025202;28;20254;-80
2021/12/08 12:21:36;;;;;;;26.57;13.83;;;;;;;5.48;74.43;94256.53;5024956;28;20179;-82
2021/12/08 12:24:27;;;;;;;35.40;16.70;;;;;;;5.90;74.90;94264.13;5034160;28;20161;-83
2021/12/08 12:27:07;;;;;;;30.27;15.93;;;;;;;5.88;72.04;94263.53;5019051;28;20291;-81
2021/12/08 12:29:47;;;;;;;24.53;12.93;;;;;;;5.88;71.71;94265.34;5014034;28;20744;-80
2021/12/08 12:32:19;;;;;;;24.63;11.93;;;;;;;5.84;72.13;94258.88;5022855;28;20187;-81